Time;durP1;ratioP1;P1;durP2;ratioP2;P2;SDS_P1;SDS_P2;PMS_P1;PMS_P2;Temp;Humidity;BMP_temperature;BMP_pressure;BME280_temperature;BME280_humidity;BME280_pressure;Samples;Min_cycle;Max_cycle;Signal;HPM_P1;HPM_P2
2022/05/31 00:02:13;;;;;;;2.60;2.17;;;9.60;99.90;;;;;;5006126;28;20046;-49
2022/05/31 00:04:38;;;;;;;;;;;9.50;99.90;;;;;;5007097;28;20350;-47
2022/05/31 00:07:04;;;;;;;3.30;2.50;;;9.50;99.90;;;;;;5007706;28;19929;-49
2022/05/31 00:09:31;;;;;;;2.40;1.92;;;9.50;99.90;;;;;;5008991;28;20045;-47
2022/05/31 00:11:57;;;;;;;2.97;2.08;;;9.40;99.90;;;;;;5005021;28;20041;-49
2022/05/31 00:14:24;;;;;;;2.40;2.15;;;9.40;99.90;;;;;;5008072;28;20045;-49
2022/05/31 00:16:50;;;;;;;3.00;2.10;;;9.40;99.90;;;;;;5008523;28;20129;-47
2022/05/31 00:19:17;;;;;;;3.30;2.08;;;9.30;99.90;;;;;;5007124;28;20042;-49
2022/05/31 00:21:47;;;;;;;2.60;2.30;;;9.30;99.90;;;;;;5006979;28;20515;-48
2022/05/31 00:24:16;;;;;;;2.40;2.20;;;9.20;99.90;;;;;;5010491;28;20357;-47
2022/05/31 00:26:42;;;;;;;2.78;2.03;;;9.20;99.90;;;;;;5006900;28;20050;-47
2022/05/31 00:29:10;;;;;;;3.97;2.60;;;9.20;99.90;;;;;;5008178;28;20048;-49
2022/05/31 00:31:37;;;;;;;2.65;2.42;;;9.10;99.90;;;;;;5006099;28;20041;-46
2022/05/31 00:34:04;;;;;;;3.70;2.30;;;9.10;99.90;;;;;;5008269;28;20463;-47
2022/05/31 00:36:30;;;;;;;3.67;2.13;;;9.00;99.90;;;;;;5006023;28;20172;-47
2022/05/31 00:38:57;;;;;;;2.50;2.25;;;9.00;99.90;;;;;;5007546;28;20140;-49
2022/05/31 00:41:23;;;;;;;2.80;2.60;;;9.00;99.90;;;;;;5006867;28;20050;-46
2022/05/31 00:43:59;;;;;;;4.95;2.60;;;8.90;99.90;;;;;;5004255;28;20072;-46
2022/05/31 00:46:29;;;;;;;4.22;2.55;;;8.90;99.90;;;;;;5006215;28;20045;-49
2022/05/31 00:48:59;;;;;;;4.57;2.90;;;8.90;99.90;;;;;;5007624;28;20065;-47
2022/05/31 00:51:38;;;;;;;3.60;3.30;;;8.80;99.90;;;;;;5005775;28;20508;-47
2022/05/31 00:54:07;;;;;;;2.97;2.78;;;8.80;99.90;;;;;;5007036;28;20056;-50
2022/05/31 00:56:34;;;;;;;3.08;2.88;;;8.90;99.90;;;;;;5006726;28;20122;-49
2022/05/31 00:59:16;;;;;;;3.40;2.80;;;8.90;99.90;;;;;;5005196;28;20042;-48
2022/05/31 01:01:47;;;;;;;3.85;3.20;;;8.80;99.90;;;;;;5005291;28;20492;-46
2022/05/31 01:04:13;;;;;;;4.70;3.05;;;8.80;99.90;;;;;;5006238;28;20137;-47
2022/05/31 01:06:39;;;;;;;3.42;3.13;;;8.80;99.90;;;;;;5004223;28;20042;-51
2022/05/31 01:09:06;;;;;;;4.70;2.65;;;8.70;99.90;;;;;;5003266;28;20103;-46
2022/05/31 01:11:35;;;;;;;3.00;2.80;;;8.70;99.90;;;;;;5006673;28;20057;-46
2022/05/31 01:14:00;;;;;;;2.90;2.70;;;8.60;99.90;;;;;;5003942;28;20080;-48
2022/05/31 01:16:26;;;;;;;3.35;2.60;;;8.60;99.90;;;;;;5005863;28;21495;-47
2022/05/31 01:18:52;;;;;;;3.67;2.97;;;8.50;99.90;;;;;;5007126;28;20030;-46
2022/05/31 01:21:18;;;;;;;3.97;2.70;;;8.50;99.90;;;;;;5006950;28;20050;-47
2022/05/31 01:23:57;;;;;;;4.13;3.25;;;8.50;99.90;;;;;;5007925;28;20148;-47
2022/05/31 01:27:00;;;;;;;3.10;2.80;;;8.50;99.90;;;;;;5004947;28;20104;-45
2022/05/31 01:29:31;;;;;;;3.17;2.88;;;8.40;99.90;;;;;;5005995;28;20527;-46
2022/05/31 01:32:00;;;;;;;3.25;2.67;;;8.40;99.90;;;;;;5006322;28;21531;-47
2022/05/31 01:34:34;;;;;;;4.35;2.70;;;8.30;99.90;;;;;;5006441;28;20073;-46
2022/05/31 01:36:59;;;;;;;3.95;2.92;;;8.20;99.90;;;;;;5006618;28;20392;-46
2022/05/31 01:39:49;;;;;;;4.70;3.00;;;8.20;99.90;;;;;;5002360;28;20057;-46
2022/05/31 01:42:31;;;;;;;3.15;2.80;;;8.20;99.90;;;;;;5004141;28;20061;-47
2022/05/31 01:45:05;;;;;;;3.40;3.13;;;8.20;99.90;;;;;;5005686;28;20050;-48
2022/05/31 01:47:31;;;;;;;6.07;2.80;;;8.10;99.90;;;;;;5004104;28;20045;-46
2022/05/31 01:49:57;;;;;;;3.22;2.92;;;8.10;99.90;;;;;;5006591;28;20033;-46
2022/05/31 01:52:24;;;;;;;4.25;3.95;;;8.10;99.90;;;;;;5007865;28;20119;-46
2022/05/31 01:54:51;;;;;;;4.50;4.10;;;8.10;99.90;;;;;;5004151;28;20030;-47
2022/05/31 01:57:18;;;;;;;5.53;3.90;;;8.10;99.90;;;;;;5004491;28;20145;-49
2022/05/31 01:59:51;;;;;;;4.32;3.22;;;8.00;99.90;;;;;;5004361;28;20045;-46
2022/05/31 02:02:20;;;;;;;4.18;3.60;;;8.00;99.90;;;;;;5005631;28;20046;-45
2022/05/31 02:04:46;;;;;;;3.65;3.35;;;8.00;99.90;;;;;;5005616;28;20507;-46
2022/05/31 02:07:16;;;;;;;6.65;3.63;;;8.00;99.90;;;;;;5005686;28;20053;-47
2022/05/31 02:09:45;;;;;;;3.53;3.22;;;8.00;99.90;;;;;;5004286;28;20037;-51
2022/05/31 02:12:12;;;;;;;5.30;3.40;;;8.00;99.90;;;;;;5005641;28;20666;-48
2022/05/31 02:14:39;;;;;;;3.67;3.38;;;7.90;99.90;;;;;;5005653;28;20044;-50
2022/05/31 02:17:05;;;;;;;4.22;3.60;;;8.00;99.90;;;;;;5005624;28;20046;-46
2022/05/31 02:19:31;;;;;;;3.83;3.53;;;8.00;99.90;;;;;;5005695;28;20034;-46
2022/05/31 02:22:03;;;;;;;4.53;3.65;;;8.00;99.90;;;;;;5005220;28;20576;-47
2022/05/31 02:24:29;;;;;;;3.85;3.38;;;8.00;99.90;;;;;;5008489;28;20081;-46
2022/05/31 02:26:55;;;;;;;4.13;3.72;;;8.10;99.90;;;;;;5007287;28;20073;-46
2022/05/31 02:29:25;;;;;;;3.72;3.42;;;8.10;99.90;;;;;;5005396;28;20394;-52
2022/05/31 02:31:52;;;;;;;4.45;3.75;;;8.10;99.90;;;;;;5003524;28;20424;-50
2022/05/31 02:34:22;;;;;;;3.70;3.40;;;8.20;99.90;;;;;;5006716;28;20045;-51
2022/05/31 02:36:48;;;;;;;4.45;3.78;;;8.20;99.90;;;;;;5006036;28;20088;-50
2022/05/31 02:39:14;;;;;;;4.57;3.30;;;8.30;99.90;;;;;;5006018;28;20437;-50
2022/05/31 02:41:40;;;;;;;5.07;3.95;;;8.30;99.90;;;;;;5004045;28;20040;-47
2022/05/31 02:44:07;;;;;;;4.80;3.47;;;8.40;99.90;;;;;;5006345;28;20038;-48
2022/05/31 02:46:33;;;;;;;4.30;4.00;;;8.40;99.90;;;;;;5006060;28;20106;-50
2022/05/31 02:48:59;;;;;;;3.85;3.50;;;8.40;99.90;;;;;;5005228;28;20034;-46
2022/05/31 02:51:26;;;;;;;6.75;4.05;;;8.40;99.90;;;;;;5002799;28;20051;-48
2022/05/31 02:53:51;;;;;;;4.45;3.67;;;8.50;99.90;;;;;;5007633;28;20124;-48
2022/05/31 02:56:17;;;;;;;4.30;4.00;;;8.50;99.90;;;;;;5003820;28;20439;-47
2022/05/31 02:58:44;;;;;;;4.40;4.00;;;;;;;;;;5009691;28;20690;-47
2022/05/31 03:01:21;;;;;;;4.70;4.13;;;8.60;99.90;;;;;;5007346;28;20137;-46
2022/05/31 03:03:47;;;;;;;4.80;4.20;;;8.60;99.90;;;;;;5009979;28;20335;-46
2022/05/31 03:06:12;;;;;;;5.53;4.10;;;8.60;99.90;;;;;;5008692;28;20077;-48
2022/05/31 03:08:38;;;;;;;4.82;4.43;;;8.70;99.90;;;;;;4991777;28;20034;-46
2022/05/31 03:11:05;;;;;;;4.32;4.03;;;8.70;99.90;;;;;;5005515;28;20088;-47
2022/05/31 03:13:31;;;;;;;4.55;4.15;;;8.70;99.90;;;;;;5010988;28;20053;-49
2022/05/31 03:16:01;;;;;;;4.97;4.10;;;8.70;99.90;;;;;;5009683;28;20038;-48
2022/05/31 03:18:34;;;;;;;4.10;3.83;;;8.70;99.90;;;;;;5010122;28;20036;-47
2022/05/31 03:21:08;;;;;;;4.70;4.30;;;8.80;99.90;;;;;;5008641;28;20468;-49
2022/05/31 03:23:38;;;;;;;5.32;4.75;;;;;;;;;;5007796;28;20044;-48
2022/05/31 03:26:06;;;;;;;5.53;4.28;;;8.80;99.90;;;;;;5007693;28;20365;-49
2022/05/31 03:28:34;;;;;;;7.18;4.55;;;8.80;99.90;;;;;;5009954;28;20037;-47
2022/05/31 03:31:03;;;;;;;5.17;4.77;;;8.80;99.90;;;;;;5008645;28;20046;-47
2022/05/31 03:33:29;;;;;;;4.90;4.50;;;8.90;99.90;;;;;;5003878;28;20048;-46
2022/05/31 03:35:55;;;;;;;4.75;3.88;;;8.90;99.90;;;;;;5008385;28;20396;-49
2022/05/31 03:38:21;;;;;;;5.43;4.80;;;8.90;99.90;;;;;;5006005;28;20038;-46
2022/05/31 03:40:59;;;;;;;4.70;4.30;;;8.90;99.90;;;;;;5008111;28;20111;-47
2022/05/31 03:43:29;;;;;;;5.10;4.68;;;8.90;99.90;;;;;;5006896;28;20048;-50
2022/05/31 03:45:54;;;;;;;5.25;4.75;;;9.00;99.90;;;;;;5008933;28;20425;-48
2022/05/31 03:48:20;;;;;;;5.30;4.80;;;;;;;;;;5009702;28;20043;-48
2022/05/31 03:50:56;;;;;;;6.60;4.55;;;9.00;99.90;;;;;;5007537;28;20058;-48
2022/05/31 03:53:21;;;;;;;5.13;4.70;;;9.30;99.90;;;;;;5008454;28;20057;-48
2022/05/31 03:55:47;;;;;;;4.72;4.32;;;;;;;;;;5005080;28;20045;-47
2022/05/31 03:58:13;;;;;;;5.78;4.28;;;9.10;99.90;;;;;;5008815;28;20038;-46
2022/05/31 04:00:38;;;;;;;5.03;4.63;;;9.10;99.90;;;;;;5008198;28;20457;-46
2022/05/31 04:03:04;;;;;;;4.57;4.18;;;9.10;99.90;;;;;;5006435;28;20042;-46
2022/05/31 04:05:30;;;;;;;7.75;4.47;;;9.20;99.90;;;;;;5004808;28;20042;-47
2022/05/31 04:08:01;;;;;;;4.93;4.43;;;9.10;99.90;;;;;;5006615;28;20087;-47
2022/05/31 04:10:29;;;;;;;4.55;4.15;;;9.10;99.90;;;;;;5004410;28;20052;-47
2022/05/31 04:12:55;;;;;;;4.85;4.45;;;9.10;99.90;;;;;;5010332;28;20046;-49
2022/05/31 04:15:21;;;;;;;5.40;4.53;;;;;;;;;;5009884;28;20053;-50
2022/05/31 04:17:47;;;;;;;4.90;4.50;;;9.20;99.90;;;;;;5009156;28;20049;-48
2022/05/31 04:20:12;;;;;;;5.93;4.30;;;9.20;99.90;;;;;;5010786;28;20045;-48
2022/05/31 04:22:38;;;;;;;4.65;4.25;;;9.30;99.90;;;;;;5007687;28;20125;-49
2022/05/31 04:25:04;;;;;;;6.78;4.88;;;9.20;99.90;;;;;;5007470;28;20049;-52
2022/05/31 04:27:29;;;;;;;4.50;4.00;;;9.30;99.90;;;;;;5009080;28;20436;-47
2022/05/31 04:29:55;;;;;;;4.57;3.95;;;9.30;99.90;;;;;;5009343;28;20084;-48
2022/05/31 04:32:21;;;;;;;4.45;4.05;;;9.30;99.90;;;;;;5007451;28;20041;-47
2022/05/31 04:34:47;;;;;;;4.32;3.92;;;9.30;99.90;;;;;;5008093;28;20523;-47
2022/05/31 04:37:13;;;;;;;4.57;4.13;;;9.30;99.90;;;;;;4988935;28;20445;-48
2022/05/31 04:39:39;;;;;;;4.30;3.90;;;9.40;99.90;;;;;;5007393;28;20046;-51
2022/05/31 04:42:07;;;;;;;4.60;4.15;;;9.40;99.90;;;;;;5008222;28;20042;-50
2022/05/31 04:44:33;;;;;;;4.57;4.07;;;9.40;99.90;;;;;;5007408;28;20118;-52
2022/05/31 04:46:59;;;;;;;4.18;3.70;;;9.40;99.90;;;;;;5004936;28;20056;-53
2022/05/31 04:49:24;;;;;;;4.55;4.15;;;9.40;99.90;;;;;;5008976;28;20046;-51
2022/05/31 04:51:50;;;;;;;5.00;3.50;;;9.50;99.90;;;;;;5006956;28;20120;-48
2022/05/31 04:54:20;;;;;;;4.53;3.65;;;9.60;99.90;;;;;;5008998;28;20111;-48
2022/05/31 04:56:46;;;;;;;4.90;3.40;;;9.70;99.90;;;;;;5006733;28;20071;-49
2022/05/31 04:59:12;;;;;;;4.95;3.40;;;9.70;99.90;;;;;;5009261;28;20046;-51
2022/05/31 05:01:38;;;;;;;4.32;3.40;;;9.90;99.90;;;;;;5007869;28;20438;-51
2022/05/31 05:04:04;;;;;;;4.38;3.97;;;9.90;99.90;;;;;;5006353;28;20057;-51
2022/05/31 05:06:31;;;;;;;3.97;3.55;;;9.80;99.90;;;;;;5006007;28;20045;-49
2022/05/31 05:08:56;;;;;;;4.03;3.33;;;9.70;99.90;;;;;;5006736;28;20041;-51
2022/05/31 05:11:23;;;;;;;4.20;3.58;;;9.90;99.90;;;;;;5003386;28;20069;-50
2022/05/31 05:13:50;;;;;;;5.93;3.35;;;9.80;99.90;;;;;;5008494;28;20168;-49
2022/05/31 05:16:17;;;;;;;6.20;3.25;;;9.80;99.90;;;;;;5005599;28;20057;-48
2022/05/31 05:18:43;;;;;;;4.38;3.42;;;9.80;99.90;;;;;;5006615;28;20495;-47
2022/05/31 05:21:11;;;;;;;4.22;3.83;;;9.90;99.90;;;;;;5006628;28;20082;-49
2022/05/31 05:23:37;;;;;;;4.78;3.47;;;9.90;99.90;;;;;;5007704;28;20476;-48
2022/05/31 05:26:02;;;;;;;3.67;3.38;;;10.00;99.90;;;;;;5008542;28;20095;-47
2022/05/31 05:31:26;;;;;;;4.03;3.38;;;10.20;99.90;;;;;;5005843;28;20467;-51
2022/05/31 05:33:53;;;;;;;5.53;4.10;;;10.30;99.90;;;;;;5007289;28;20034;-50
2022/05/31 05:36:19;;;;;;;4.20;3.65;;;10.40;99.90;;;;;;5006810;28;20080;-50
2022/05/31 05:38:44;;;;;;;4.65;4.00;;;10.50;99.90;;;;;;5006219;28;20074;-47
2022/05/31 05:41:10;;;;;;;6.30;3.95;;;10.60;99.90;;;;;;5005444;28;20132;-50
2022/05/31 05:43:36;;;;;;;6.32;4.22;;;10.60;99.90;;;;;;5004128;28;20045;-47
2022/05/31 05:46:02;;;;;;;7.68;4.32;;;10.80;99.90;;;;;;5008048;28;20061;-49
2022/05/31 05:48:27;;;;;;;5.25;4.47;;;10.90;99.90;;;;;;5005776;28;20065;-50
2022/05/31 05:50:53;;;;;;;7.80;4.18;;;10.90;99.90;;;;;;5006230;28;20119;-48
2022/05/31 05:53:18;;;;;;;4.65;4.07;;;11.00;99.90;;;;;;5005289;28;20225;-50
2022/05/31 05:55:44;;;;;;;6.05;4.70;;;11.20;99.90;;;;;;5004504;28;20061;-50
2022/05/31 05:58:10;;;;;;;6.13;4.32;;;11.60;99.90;;;;;;5006087;28;20459;-48
2022/05/31 06:00:47;;;;;;;4.85;4.30;;;12.70;99.90;;;;;;5004438;28;20069;-49
2022/05/31 06:03:24;;;;;;;5.28;3.88;;;13.90;99.90;;;;;;5001662;28;20060;-49
2022/05/31 06:05:51;;;;;;;5.70;4.15;;;14.90;99.90;;;;;;5005279;28;20435;-51
2022/05/31 06:08:28;;;;;;;5.95;3.95;;;16.10;99.90;;;;;;5004306;28;20077;-49
2022/05/31 06:11:07;;;;;;;5.35;3.70;;;16.70;99.90;;;;;;5005990;28;20045;-49
2022/05/31 06:13:40;;;;;;;3.60;3.30;;;17.50;99.90;;;;;;5002952;28;20061;-48
2022/05/31 06:16:07;;;;;;;5.13;3.10;;;17.50;99.90;;;;;;5008762;28;20076;-49
2022/05/31 06:18:44;;;;;;;3.70;3.33;;;17.30;99.90;;;;;;5008702;28;20053;-48
2022/05/31 06:21:11;;;;;;;3.80;3.40;;;16.70;99.90;;;;;;5008146;28;20053;-48
2022/05/31 06:23:38;;;;;;;4.05;3.42;;;16.90;99.90;;;;;;5010711;28;20497;-48
2022/05/31 06:26:03;;;;;;;3.60;3.30;;;17.70;99.90;;;;;;5010634;28;20132;-48
2022/05/31 06:28:29;;;;;;;5.13;3.20;;;18.70;99.90;;;;;;5007515;28;20117;-51
2022/05/31 06:30:54;;;;;;;4.00;2.92;;;18.90;99.90;;;;;;4990802;28;20046;-49
2022/05/31 06:33:20;;;;;;;2.45;2.25;;;;;;;;;;5004409;28;20072;-53
2022/05/31 06:35:46;;;;;;;3.70;2.70;;;20.40;99.90;;;;;;5002775;28;20501;-51
2022/05/31 06:38:12;;;;;;;4.00;2.63;;;20.80;92.50;;;;;;5008900;28;20048;-50
2022/05/31 06:40:40;;;;;;;5.00;2.38;;;20.60;86.80;;;;;;5008103;28;20040;-51
2022/05/31 06:43:06;;;;;;;3.25;2.47;;;20.50;91.10;;;;;;5000141;28;20034;-51
2022/05/31 06:45:31;;;;;;;3.25;2.60;;;20.90;93.20;;;;;;5003351;28;20037;-51
2022/05/31 06:47:57;;;;;;;4.13;2.45;;;20.80;90.80;;;;;;5027016;28;20081;-50
2022/05/31 06:50:23;;;;;;;2.28;2.08;;;21.10;90.00;;;;;;5008205;28;20597;-50
2022/05/31 06:58:17;;;;;;;3.83;2.20;;;20.70;81.80;;;;;;5010349;28;20053;-50
2022/05/31 07:00:42;;;;;;;3.17;2.20;;;21.50;92.30;;;;;;5011992;28;20037;-49
2022/05/31 07:03:08;;;;;;;4.85;2.10;;;21.10;84.80;;;;;;5012430;28;20042;-50
2022/05/31 07:05:34;;;;;;;2.83;2.08;;;21.60;80.20;;;;;;5010975;28;20437;-51
2022/05/31 07:07:59;;;;;;;2.25;2.05;;;20.70;73.90;;;;;;5010262;28;20536;-52
2022/05/31 07:10:25;;;;;;;4.78;1.88;;;21.80;83.50;;;;;;5007538;28;20038;-53
2022/05/31 07:12:50;;;;;;;3.63;2.13;;;22.60;77.10;;;;;;5010967;28;20038;-52
2022/05/31 07:15:16;;;;;;;3.15;2.20;;;22.30;71.80;;;;;;5013722;28;20045;-53
2022/05/31 07:17:42;;;;;;;3.88;2.30;;;22.00;73.20;;;;;;5013869;28;20472;-53
2022/05/31 07:20:09;;;;;;;3.22;1.90;;;22.10;75.90;;;;;;5004870;28;20461;-49
2022/05/31 07:22:38;;;;;;;5.20;2.20;;;21.90;72.10;;;;;;5010866;28;20120;-52
2022/05/31 07:25:04;;;;;;;5.05;2.05;;;21.80;70.60;;;;;;5012465;28;20050;-51
2022/05/31 07:27:30;;;;;;;3.15;2.10;;;21.50;70.10;;;;;;5013195;28;20034;-50
2022/05/31 07:29:55;;;;;;;3.22;2.13;;;21.60;68.70;;;;;;5011523;28;20076;-52
2022/05/31 07:32:21;;;;;;;5.25;2.20;;;20.80;67.60;;;;;;5012257;28;20084;-54
2022/05/31 07:34:49;;;;;;;3.60;2.22;;;21.20;72.30;;;;;;5012625;28;20046;-53
2022/05/31 07:37:14;;;;;;;;;;;20.70;66.10;;;;;;5013472;28;20496;-54
2022/05/31 07:39:40;;;;;;;4.95;2.53;;;20.90;67.30;;;;;;5010760;28;19928;-54
2022/05/31 07:42:06;;;;;;;3.90;2.95;;;20.40;71.70;;;;;;5012109;28;20046;-50
2022/05/31 07:44:32;;;;;;;2.40;2.20;;;20.60;73.40;;;;;;5002862;28;20049;-53
2022/05/31 07:47:00;;;;;;;4.75;2.72;;;20.20;71.80;;;;;;5011477;28;20046;-48
2022/05/31 07:49:26;;;;;;;5.20;2.65;;;20.30;73.60;;;;;;5007764;28;20598;-49
2022/05/31 07:51:51;;;;;;;4.47;2.92;;;19.60;71.20;;;;;;5009941;28;20157;-52
2022/05/31 07:54:17;;;;;;;7.72;3.10;;;19.20;71.60;;;;;;5012053;28;20049;-53
2022/05/31 07:56:42;;;;;;;5.88;3.85;;;19.40;74.40;;;;;;5010613;28;20088;-49
2022/05/31 07:59:09;;;;;;;5.88;3.28;;;19.10;73.50;;;;;;5011406;28;20046;-54
2022/05/31 08:01:35;;;;;;;5.53;3.03;;;19.10;76.80;;;;;;5013057;28;20137;-51
2022/05/31 08:04:01;;;;;;;4.13;3.25;;;19.20;77.50;;;;;;5012985;28;20034;-51
2022/05/31 08:06:31;;;;;;;5.43;3.50;;;19.30;77.40;;;;;;5011722;28;20570;-50
2022/05/31 08:08:57;;;;;;;5.78;3.35;;;18.80;72.20;;;;;;5006611;28;20054;-52
2022/05/31 08:11:26;;;;;;;6.60;3.65;;;19.10;75.10;;;;;;5001953;28;20042;-53
2022/05/31 08:13:53;;;;;;;5.78;3.70;;;19.20;74.60;;;;;;5012247;28;20496;-52
2022/05/31 08:16:21;;;;;;;6.68;3.88;;;19.00;74.60;;;;;;5007597;28;20052;-51
2022/05/31 08:18:48;;;;;;;5.50;3.55;;;18.50;74.80;;;;;;5008867;28;20151;-49
2022/05/31 08:21:21;;;;;;;4.03;3.35;;;18.80;75.30;;;;;;5006965;28;20049;-54
2022/05/31 08:23:47;;;;;;;6.30;3.80;;;18.80;72.90;;;;;;5008020;28;20038;-50
2022/05/31 08:26:13;;;;;;;6.40;3.70;;;18.90;72.80;;;;;;5012151;28;20211;-52
2022/05/31 08:28:39;;;;;;;5.00;4.07;;;18.90;73.20;;;;;;5008205;28;20532;-52
2022/05/31 08:31:10;;;;;;;5.10;4.00;;;19.00;69.00;;;;;;5008134;28;20037;-52
2022/05/31 08:33:37;;;;;;;5.07;4.45;;;18.50;71.40;;;;;;5009399;28;20068;-52
2022/05/31 08:36:03;;;;;;;7.35;4.28;;;18.60;70.20;;;;;;5011143;28;20038;-53
2022/05/31 08:38:30;;;;;;;4.60;4.03;;;18.90;72.30;;;;;;5009179;28;21296;-51
2022/05/31 08:41:09;;;;;;;5.13;4.18;;;18.60;72.10;;;;;;5011687;28;20080;-51
2022/05/31 08:43:45;;;;;;;8.18;4.47;;;18.80;73.20;;;;;;5008381;28;20042;-53
2022/05/31 08:46:42;;;;;;;6.05;4.47;;;18.90;74.40;;;;;;5010514;28;20115;-54
2022/05/31 08:49:12;;;;;;;5.17;4.53;;;19.10;71.60;;;;;;5007385;28;20034;-51
2022/05/31 08:51:55;;;;;;;4.43;4.03;;;18.90;68.40;;;;;;5012114;28;20530;-53
2022/05/31 08:58:08;;;;;;;7.15;4.68;;;18.80;70.50;;;;;;5008340;28;20072;-53
2022/05/31 09:00:42;;;;;;;5.40;4.43;;;19.20;67.30;;;;;;4912104;29;20044;-54
2022/05/31 09:03:27;;;;;;;5.63;4.22;;;19.40;68.10;;;;;;4928537;29;20151;-54
2022/05/31 09:05:58;;;;;;;5.53;3.60;;;19.60;69.60;;;;;;4928619;29;20055;-53
2022/05/31 09:08:44;;;;;;;6.72;3.92;;;19.90;71.20;;;;;;4928834;29;20055;-54
2022/05/31 09:11:21;;;;;;;6.32;4.40;;;20.10;63.90;;;;;;4926676;29;20059;-53
2022/05/31 09:13:55;;;;;;;5.40;4.32;;;20.10;63.90;;;;;;4927400;29;20750;-53
2022/05/31 09:16:57;;;;;;;7.53;4.47;;;20.30;66.20;;;;;;4931620;29;20074;-51
2022/05/31 09:20:03;;;;;;;7.55;4.00;;;20.20;63.60;;;;;;4922778;29;20448;-52
2022/05/31 09:22:30;;;;;;;3.97;3.20;;;20.10;64.20;;;;;;4929525;29;20471;-51
2022/05/31 09:24:56;;;;;;;4.78;3.42;;;19.70;60.30;;;;;;4931492;29;20058;-53
2022/05/31 09:27:24;;;;;;;5.70;2.70;;;19.80;59.40;;;;;;4931528;29;20056;-50
2022/05/31 09:30:08;;;;;;;5.82;3.22;;;20.00;59.40;;;;;;4930079;29;20051;-53
2022/05/31 09:33:04;;;;;;;3.38;2.65;;;20.30;60.00;;;;;;4926274;29;20138;-53
2022/05/31 09:35:50;;;;;;;3.17;2.70;;;20.20;58.90;;;;;;4997731;28;20076;-55
2022/05/31 09:38:41;;;;;;;4.25;3.33;;;20.00;59.10;;;;;;5010548;28;20388;-54
2022/05/31 09:41:51;;;;;;;5.93;3.70;;;19.40;57.80;;;;;;5002011;28;20066;-52
2022/05/31 09:44:26;;;;;;;5.47;3.47;;;19.50;60.40;;;;;;5001037;28;20236;-51
2022/05/31 09:47:10;;;;;;;4.78;2.90;;;19.80;60.20;;;;;;5010606;28;20038;-54
2022/05/31 09:49:43;;;;;;;5.13;3.38;;;20.20;60.30;;;;;;5005718;28;20057;-52
2022/05/31 09:52:37;;;;;;;5.22;3.50;;;20.40;60.10;;;;;;5007431;28;20054;-55
2022/05/31 09:58:03;;;;;;;5.43;4.05;;;20.40;59.30;;;;;;5007818;28;20049;-55
2022/05/31 10:00:29;;;;;;;5.63;4.28;;;20.50;55.50;;;;;;5007635;28;20096;-52
2022/05/31 10:03:10;;;;;;;4.97;4.30;;;20.70;58.10;;;;;;5008351;28;20081;-52
2022/05/31 10:05:36;;;;;;;6.40;3.53;;;20.80;57.40;;;;;;5004437;28;20468;-51
2022/05/31 10:08:03;;;;;;;4.30;3.78;;;20.80;57.50;;;;;;5007437;28;20085;-53
2022/05/31 10:10:33;;;;;;;4.67;3.80;;;21.00;56.30;;;;;;4997533;28;20042;-53
2022/05/31 10:13:03;;;;;;;6.05;3.75;;;21.20;57.40;;;;;;5002803;28;20324;-53
2022/05/31 10:15:31;;;;;;;6.47;3.47;;;21.70;58.20;;;;;;5001842;28;20151;-53
2022/05/31 10:18:04;;;;;;;3.53;3.22;;;21.30;51.70;;;;;;5003056;28;20046;-53
2022/05/31 10:20:30;;;;;;;4.10;2.95;;;21.40;53.60;;;;;;4999459;28;20057;-52
2022/05/31 10:23:00;;;;;;;4.25;3.00;;;21.50;55.30;;;;;;5002329;28;20448;-52
2022/05/31 10:25:34;;;;;;;7.97;3.30;;;21.10;53.80;;;;;;5000447;28;20493;-52
2022/05/31 10:28:09;;;;;;;4.88;3.55;;;20.90;51.50;;;;;;4998229;28;20148;-49
2022/05/31 10:30:35;;;;;;;4.25;3.38;;;20.90;56.20;;;;;;4999679;28;20117;-51
2022/05/31 10:33:20;;;;;;;5.55;3.33;;;20.40;55.60;;;;;;4998462;28;20088;-53
2022/05/31 10:36:04;;;;;;;6.75;3.38;;;20.30;58.90;;;;;;5006156;28;20411;-51
2022/05/31 10:38:31;;;;;;;4.38;3.22;;;;;;;;;;5008355;28;20236;-51
2022/05/31 10:41:07;;;;;;;5.20;3.30;;;20.20;55.80;;;;;;5008270;28;20050;-50
2022/05/31 10:43:45;;;;;;;4.60;3.42;;;19.70;56.20;;;;;;5007763;28;20038;-49
2022/05/31 10:46:17;;;;;;;4.20;3.50;;;20.10;56.00;;;;;;5008003;28;20042;-50
2022/05/31 10:48:48;;;;;;;5.43;3.40;;;20.10;57.60;;;;;;5009691;28;20038;-52
2022/05/31 10:51:28;;;;;;;5.03;3.17;;;20.00;57.60;;;;;;5003641;28;20042;-49
2022/05/31 10:54:13;;;;;;;3.83;3.38;;;20.00;58.40;;;;;;5006248;28;20034;-51
2022/05/31 10:56:55;;;;;;;5.38;3.92;;;19.60;57.30;;;;;;5024227;28;20042;-49
2022/05/31 10:59:29;;;;;;;5.78;3.90;;;19.60;58.00;;;;;;5007031;28;20038;-49
2022/05/31 11:02:00;;;;;;;6.50;3.90;;;19.40;60.20;;;;;;5007921;28;20100;-50
2022/05/31 11:04:49;;;;;;;4.32;3.50;;;19.20;60.00;;;;;;5009866;28;20038;-49
2022/05/31 11:13:52;;;;;;;6.82;4.65;;;19.30;64.00;;;;;;5008361;28;20408;-52
2022/05/31 11:16:37;;;;;;;7.15;4.55;;;19.40;63.50;;;;;;5006608;28;20062;-54
2022/05/31 11:19:17;;;;;;;7.13;4.47;;;19.50;62.30;;;;;;5006213;28;20042;-51
2022/05/31 11:21:47;;;;;;;5.57;4.40;;;19.50;61.80;;;;;;5012222;28;20041;-51
2022/05/31 11:24:46;;;;;;;5.80;4.30;;;19.60;63.00;;;;;;5013212;28;20057;-49
2022/05/31 11:27:29;;;;;;;6.05;4.80;;;19.30;61.90;;;;;;4984349;28;20128;-49
2022/05/31 11:30:07;;;;;;;4.95;4.45;;;19.50;63.00;;;;;;5011125;28;20042;-53
2022/05/31 11:32:34;;;;;;;5.30;4.00;;;19.60;63.00;;;;;;5012588;28;20053;-53
2022/05/31 11:35:22;;;;;;;4.80;4.03;;;19.40;63.80;;;;;;5010074;28;20045;-51
2022/05/31 11:37:57;;;;;;;7.20;4.10;;;19.50;63.00;;;;;;5010394;28;20058;-51
2022/05/31 11:40:48;;;;;;;4.85;4.35;;;19.40;63.80;;;;;;5012756;28;20046;-49
2022/05/31 11:43:35;;;;;;;7.15;4.32;;;19.50;62.60;;;;;;5011011;28;20049;-53
2022/05/31 11:46:19;;;;;;;;;;;19.50;64.50;;;;;;5011935;28;20042;-52
2022/05/31 11:48:54;;;;;;;4.53;3.60;;;19.60;63.60;;;;;;5011681;28;19921;-52
2022/05/31 11:51:31;;;;;;;6.38;4.00;;;19.70;67.80;;;;;;5008921;28;20496;-52
2022/05/31 11:54:22;;;;;;;5.90;4.05;;;19.80;68.10;;;;;;5011995;28;20137;-49
2022/05/31 11:56:57;;;;;;;7.93;4.43;;;20.00;67.20;;;;;;5005663;28;20037;-52
2022/05/31 11:59:36;;;;;;;9.63;4.45;;;20.20;67.90;;;;;;5012170;28;20034;-49
2022/05/31 12:02:12;;;;;;;5.07;3.78;;;20.40;68.40;;;;;;5011155;28;20050;-51
2022/05/31 12:04:45;;;;;;;6.22;3.70;;;20.90;68.90;;;;;;5012127;28;20054;-53
2022/05/31 12:07:31;;;;;;;6.43;4.13;;;20.80;67.30;;;;;;5011481;28;20057;-48
2022/05/31 12:10:07;;;;;;;6.68;4.75;;;20.70;65.40;;;;;;5005462;28;20048;-48
2022/05/31 12:12:35;;;;;;;6.38;4.30;;;20.90;65.80;;;;;;5011506;28;20056;-50
2022/05/31 12:15:21;;;;;;;8.10;4.63;;;21.20;64.40;;;;;;5012549;28;20353;-50
2022/05/31 12:18:09;;;;;;;6.78;4.10;;;21.50;63.20;;;;;;5013340;28;20046;-53
2022/05/31 12:21:05;;;;;;;4.20;3.88;;;21.90;58.50;;;;;;5011627;28;20092;-53
2022/05/31 12:23:56;;;;;;;4.72;4.30;;;21.90;57.90;;;;;;5012384;28;20480;-50
2022/05/31 12:26:40;;;;;;;5.00;3.40;;;22.00;54.70;;;;;;5012067;28;20100;-52
2022/05/31 12:29:06;;;;;;;5.68;3.53;;;21.80;54.70;;;;;;5018363;28;20049;-51
2022/05/31 12:31:37;;;;;;;4.95;3.85;;;21.90;54.10;;;;;;5010930;28;20060;-52
2022/05/31 12:34:20;;;;;;;4.53;3.83;;;21.80;56.10;;;;;;5011224;28;20129;-50
2022/05/31 12:37:04;;;;;;;5.00;3.30;;;21.30;53.00;;;;;;4997289;28;20377;-52
2022/05/31 12:39:33;;;;;;;4.85;3.28;;;21.10;55.20;;;;;;5009440;28;20196;-53
2022/05/31 12:42:14;;;;;;;5.22;3.17;;;21.50;55.00;;;;;;5009570;28;20079;-52
2022/05/31 12:44:48;;;;;;;4.32;3.60;;;21.40;52.60;;;;;;5003791;28;20038;-53
2022/05/31 12:47:26;;;;;;;3.20;2.90;;;21.40;51.50;;;;;;5010430;28;20404;-53
2022/05/31 12:50:02;;;;;;;3.55;2.90;;;21.60;53.30;;;;;;5006165;28;20048;-50
2022/05/31 12:54:59;;;;;;;4.07;3.22;;;21.30;52.90;;;;;;5008521;28;20034;-52
2022/05/31 13:00:41;;;;;;;6.28;3.10;;;21.60;52.50;;;;;;5010642;28;20127;-53
2022/05/31 13:03:36;;;;;;;4.20;2.88;;;21.80;52.30;;;;;;5010037;28;20053;-53
2022/05/31 13:06:21;;;;;;;6.47;3.20;;;21.50;51.50;;;;;;5010866;28;20053;-52
2022/05/31 13:08:56;;;;;;;5.45;2.83;;;21.60;51.40;;;;;;5007554;28;20060;-52
2022/05/31 13:20:05;;;;;;;3.78;2.70;;;20.80;50.40;;;;;;5010237;28;20104;-51
2022/05/31 13:22:38;;;;;;;2.42;2.22;;;20.90;51.10;;;;;;5011083;28;20061;-53
2022/05/31 13:25:14;;;;;;;3.35;2.88;;;21.00;52.40;;;;;;5009879;28;20053;-51
2022/05/31 13:27:39;;;;;;;4.22;2.67;;;21.10;52.30;;;;;;5008806;28;20050;-53
2022/05/31 13:30:15;;;;;;;3.63;2.30;;;21.10;51.50;;;;;;5009490;28;20054;-48
2022/05/31 13:32:40;;;;;;;3.85;2.60;;;21.10;52.50;;;;;;5009779;28;20037;-52
2022/05/31 13:35:27;;;;;;;3.22;2.47;;;21.30;55.60;;;;;;5010406;28;20123;-50
2022/05/31 13:37:59;;;;;;;;;;;21.50;53.40;;;;;;5011131;28;20273;-53
2022/05/31 13:40:31;;;;;;;4.22;2.40;;;21.40;52.70;;;;;;5007997;28;19969;-51
2022/05/31 13:42:57;;;;;;;4.75;2.60;;;21.40;53.30;;;;;;5010031;28;20050;-54
2022/05/31 13:45:26;;;;;;;4.10;2.47;;;21.30;54.30;;;;;;5006956;28;20396;-51
2022/05/31 13:48:18;;;;;;;4.03;2.58;;;20.90;51.10;;;;;;4992559;28;20045;-49
2022/05/31 13:50:58;;;;;;;2.83;2.22;;;20.70;53.00;;;;;;5001073;28;20037;-52
2022/05/31 13:53:25;;;;;;;2.38;2.00;;;20.40;53.10;;;;;;4993208;28;20045;-50